Tauranga Harbour, New Zealand
Current Conditions -  °F | °C
As of 7:00 PM on Monday 24 Nov 2014 (Local Time) from NZAA Reporting Station
Overcast Overcast  
Wind Chill: 64°   Ceiling: 1000
Heat Index: 64°   Visibility: 6mi
Dew Point: 64°   Wind: 10mph
Humidity: 100%   Direction: 260°W
Pressure: 30"   Gusts: NA
Location:  37.53°S, 175.99°E
Report Text: NZAA 240700Z AUTO 26009KT 9999 OVC010/// 18/18 Q1016 TEMPO 6000DZ BKN004
Loading
Personal Weather Stations






























Interactive Weather Map New forecast layout! Learn more

10-Day Weather Forecast

Advertisements
Track Severe Weather on mobile